createdAt,value
2019-01-23T00:01:11.945Z,56.45
2019-01-23T00:04:01.194Z,59.80
2019-01-23T00:06:50.047Z,57.13
2019-01-23T00:09:38.893Z,57.27
2019-01-23T00:12:27.692Z,56.80
2019-01-23T00:15:16.103Z,55.35
2019-01-23T00:18:04.567Z,61.53
2019-01-23T00:20:53.209Z,57.53
2019-01-23T00:23:41.800Z,56.08
2019-01-23T00:26:30.996Z,54.63
2019-01-23T00:29:12.837Z,55.63
2019-01-23T00:31:53.936Z,64.10
2019-01-23T00:34:35.784Z,56.05
2019-01-23T00:37:17.750Z,60.90
2019-01-23T00:39:48.237Z,58.83
2019-01-23T00:42:37.389Z,52.27
2019-01-23T00:45:18.582Z,53.75
2019-01-23T00:47:59.917Z,58.55
2019-01-23T00:50:40.756Z,58.15
2019-01-23T00:59:33.910Z,52.08
2019-01-23T01:02:15.312Z,53.98
2019-01-23T01:04:56.570Z,51.63
2019-01-23T01:07:37.259Z,61.83
2019-01-23T01:10:18.296Z,53.50
2019-01-23T01:12:59.750Z,55.30
2019-01-23T01:15:41.117Z,55.50
2019-01-23T01:18:22.412Z,56.42
2019-01-23T01:24:16.329Z,55.65
2019-01-23T01:26:58.087Z,55.92
2019-01-23T01:29:39.599Z,53.70
2019-01-23T01:32:21.000Z,52.83
2019-01-23T01:34:51.616Z,59.93
2019-01-23T01:37:40.830Z,55.48
2019-01-23T01:40:30.076Z,54.55
2019-01-23T01:43:18.993Z,48.98
2019-01-23T01:46:00.495Z,49.70
2019-01-23T01:48:41.543Z,58.50
2019-01-23T01:51:22.643Z,50.90
2019-01-23T01:54:04.592Z,54.93
2019-01-23T01:56:45.582Z,47.73
2019-01-23T01:59:27.346Z,50.45
2019-01-23T02:02:09.278Z,57.27
2019-01-23T02:04:50.800Z,51.75
2019-01-23T02:07:32.131Z,47.48
2019-01-23T02:10:12.576Z,49.53
2019-01-23T02:12:53.859Z,47.10
2019-01-23T02:15:35.532Z,47.73
2019-01-23T02:18:17.126Z,50.10
2019-01-23T02:20:58.851Z,54.93
2019-01-23T02:23:28.676Z,42.23
2019-01-23T02:26:17.495Z,45.73
2019-01-23T02:29:09.604Z,45.92
2019-01-23T02:31:57.199Z,47.93
2019-01-23T02:34:38.726Z,44.83
2019-01-23T02:37:19.833Z,45.28
2019-01-23T02:40:01.793Z,49.35
2019-01-23T02:48:40.000Z,41.77
2019-01-23T02:51:21.567Z,50.52
2019-01-23T02:54:03.064Z,42.30
2019-01-23T02:56:44.646Z,51.00
2019-01-23T02:59:25.947Z,47.90
2019-01-23T03:02:06.975Z,49.35
2019-01-23T03:04:48.125Z,51.65
2019-01-23T03:07:30.014Z,50.15
2019-01-23T03:10:00.428Z,49.95
2019-01-23T03:12:49.231Z,46.00
2019-01-23T03:15:38.054Z,51.10
2019-01-23T03:18:08.408Z,47.50
2019-01-23T03:20:56.980Z,46.30
2019-01-23T03:23:46.296Z,48.70
2019-01-23T03:26:15.975Z,45.63
2019-01-23T03:29:05.089Z,53.52
2019-01-23T03:31:54.169Z,48.00
2019-01-23T03:34:43.076Z,48.45
2019-01-23T03:37:32.367Z,49.20
2019-01-23T03:40:22.132Z,51.42
2019-01-23T03:43:11.016Z,45.78
2019-01-23T03:45:59.844Z,53.10
2019-01-23T03:48:48.669Z,52.55
2019-01-23T03:51:37.482Z,48.33
2019-01-23T03:54:25.929Z,51.75
2019-01-23T03:57:07.036Z,55.12
2019-01-23T03:59:48.222Z,47.55
2019-01-23T04:02:29.639Z,52.95
2019-01-23T04:05:11.189Z,50.48
2019-01-23T04:07:52.271Z,44.30
2019-01-23T04:10:33.707Z,46.77
2019-01-23T04:13:14.651Z,49.60
2019-01-23T04:15:56.144Z,54.63
2019-01-23T04:18:37.355Z,51.02
2019-01-23T04:24:00.670Z,46.55
2019-01-23T04:26:30.659Z,53.48
2019-01-23T04:29:19.457Z,50.20
2019-01-23T04:32:08.283Z,49.13
2019-01-23T04:34:57.679Z,52.13
2019-01-23T04:41:00.599Z,47.70
2019-01-23T04:43:49.979Z,48.08
2019-01-23T04:46:39.079Z,50.83
2019-01-23T04:49:28.052Z,54.63
2019-01-23T04:52:35.862Z,47.80
2019-01-23T04:55:24.119Z,53.63
2019-01-23T04:58:13.191Z,49.55
2019-01-23T05:01:02.243Z,53.00
2019-01-23T05:03:50.901Z,44.55
2019-01-23T05:06:39.332Z,49.90
2019-01-23T05:09:09.673Z,52.60
2019-01-23T05:11:58.536Z,50.38
2019-01-23T05:14:47.666Z,58.35
2019-01-23T05:17:36.711Z,52.78
2019-01-23T05:20:25.711Z,48.02
2019-01-23T05:23:15.031Z,47.93
2019-01-23T05:26:03.947Z,49.88
2019-01-23T05:28:52.811Z,47.10
2019-01-23T05:31:41.939Z,45.85
2019-01-23T05:34:30.855Z,46.63
2019-01-23T05:37:11.936Z,54.60
2019-01-23T05:39:53.185Z,50.12
2019-01-23T05:42:34.000Z,53.73
2019-01-23T05:45:04.238Z,51.42
2019-01-23T05:47:53.424Z,49.98
2019-01-23T05:50:42.538Z,55.75
2019-01-23T05:53:31.640Z,55.73
2019-01-23T05:56:21.105Z,53.65
2019-01-23T05:59:09.876Z,51.83
2019-01-23T06:01:58.703Z,48.48
2019-01-23T06:08:16.338Z,47.33
2019-01-23T06:10:57.621Z,49.40
2019-01-23T06:13:39.155Z,50.40
2019-01-23T06:16:21.031Z,50.33
2019-01-23T06:19:02.566Z,52.05
2019-01-23T06:21:43.785Z,50.43
2019-01-23T06:24:24.817Z,57.48
2019-01-23T06:26:55.146Z,56.92
2019-01-23T06:29:43.779Z,56.08
2019-01-23T06:32:13.488Z,49.83
2019-01-23T06:35:02.418Z,50.10
2019-01-23T06:37:51.038Z,48.90
2019-01-23T06:40:21.076Z,52.70
2019-01-23T06:43:09.869Z,55.05
2019-01-23T06:45:58.854Z,53.13
2019-01-23T06:48:28.973Z,50.92
2019-01-23T06:51:18.051Z,50.70
2019-01-23T06:54:05.681Z,58.23
2019-01-23T06:56:53.713Z,49.53
2019-01-23T06:59:43.046Z,52.40
2019-01-23T07:02:32.142Z,52.70
2019-01-23T07:05:02.176Z,58.20
2019-01-23T07:07:50.994Z,54.85
2019-01-23T07:10:39.803Z,57.73
2019-01-23T07:13:28.821Z,54.73
2019-01-23T07:16:19.784Z,54.90
2019-01-23T07:19:08.719Z,53.70
2019-01-23T07:21:58.003Z,54.18
2019-01-23T07:24:46.775Z,57.80
2019-01-23T07:27:35.884Z,50.48
2019-01-23T07:30:26.248Z,51.65
2019-01-23T07:33:15.395Z,63.35
2019-01-23T07:36:04.607Z,59.63
2019-01-23T07:38:53.375Z,52.23
2019-01-23T07:41:42.139Z,53.55
2019-01-23T07:44:12.252Z,58.40
2019-01-23T07:47:01.427Z,57.95
2019-01-23T07:49:31.751Z,55.15
2019-01-23T07:52:01.750Z,51.02
2019-01-23T07:54:50.244Z,50.65
2019-01-23T07:57:39.503Z,53.52
2019-01-23T08:00:31.462Z,60.33
2019-01-23T08:03:19.420Z,48.92
2019-01-23T08:05:49.657Z,55.33
2019-01-23T08:08:37.917Z,65.70
2019-01-23T08:11:26.509Z,42.60
2019-01-23T08:14:15.312Z,52.90
2019-01-23T08:17:04.526Z,55.85
2019-01-23T08:19:53.335Z,48.65
2019-01-23T08:22:42.115Z,58.42
2019-01-23T08:25:30.877Z,60.55
2019-01-23T08:28:01.097Z,58.83
2019-01-23T08:30:50.294Z,57.48
2019-01-23T08:33:39.173Z,51.37
2019-01-23T08:36:28.008Z,49.77
2019-01-23T08:39:17.079Z,50.58
2019-01-23T08:42:05.921Z,58.68
2019-01-23T08:44:55.195Z,59.03
2019-01-23T08:47:44.306Z,48.10
2019-01-23T08:50:25.519Z,47.13
2019-01-23T08:52:55.856Z,54.67
2019-01-23T08:55:44.687Z,53.90
2019-01-23T08:58:33.586Z,59.55
2019-01-23T09:01:22.655Z,51.92
2019-01-23T09:04:11.399Z,56.15
2019-01-23T09:06:59.970Z,56.25
2019-01-23T09:09:48.208Z,58.00
2019-01-23T09:12:37.075Z,55.88
2019-01-23T09:15:25.843Z,50.52
2019-01-23T09:18:14.376Z,47.05
2019-01-23T09:21:03.479Z,46.30
2019-01-23T09:23:52.785Z,52.60
2019-01-23T09:26:41.563Z,47.93
2019-01-23T09:29:30.345Z,67.40
2019-01-23T09:32:38.368Z,51.23
2019-01-23T09:35:46.105Z,48.17
2019-01-23T09:38:53.959Z,47.85
2019-01-23T09:42:01.828Z,43.87
2019-01-23T09:45:09.695Z,50.75
2019-01-23T09:48:17.927Z,53.45
2019-01-23T09:51:25.673Z,48.95
2019-01-23T09:54:15.406Z,59.23
2019-01-23T09:57:04.414Z,52.50
2019-01-23T09:59:53.427Z,54.03
2019-01-23T10:02:42.033Z,51.30
2019-01-23T10:05:30.835Z,50.50
2019-01-23T10:08:19.724Z,47.88
2019-01-23T10:11:08.635Z,54.00
2019-01-23T10:13:57.833Z,51.20
2019-01-23T10:16:46.667Z,49.50
2019-01-23T10:19:35.428Z,54.70
2019-01-23T10:22:24.284Z,52.13
2019-01-23T10:25:13.564Z,55.17
2019-01-23T10:28:02.716Z,56.33
2019-01-23T10:30:51.819Z,46.48
2019-01-23T10:33:40.039Z,51.13
2019-01-23T10:36:28.642Z,51.65
2019-01-23T10:39:17.211Z,54.67
2019-01-23T10:41:47.376Z,58.60
2019-01-23T10:44:35.655Z,53.70
2019-01-23T10:47:17.077Z,51.10
2019-01-23T10:49:58.356Z,54.98
2019-01-23T10:52:39.947Z,57.73
2019-01-23T10:55:21.321Z,59.38
2019-01-23T10:58:02.927Z,50.80
2019-01-23T11:06:50.051Z,56.70
2019-01-23T11:09:57.926Z,53.55
2019-01-23T11:20:56.792Z,57.30
2019-01-23T11:23:45.952Z,57.53
2019-01-23T11:26:35.220Z,56.98
2019-01-23T11:29:24.069Z,54.58
2019-01-23T11:32:13.190Z,57.13
2019-01-23T11:35:09.420Z,53.70
2019-01-23T11:37:58.260Z,61.60
2019-01-23T11:40:47.062Z,62.40
2019-01-23T11:43:36.173Z,59.30
2019-01-23T11:46:25.426Z,61.60
2019-01-23T11:49:14.237Z,65.65
2019-01-23T11:51:44.373Z,61.25
2019-01-23T11:54:33.503Z,65.97
2019-01-23T11:57:22.027Z,53.98
2019-01-23T12:00:12.468Z,57.55
2019-01-23T12:03:00.995Z,68.33
2019-01-23T12:05:50.080Z,61.37
2019-01-23T12:08:39.164Z,58.20
2019-01-23T12:11:28.051Z,56.53
2019-01-23T12:14:16.850Z,61.65
2019-01-23T12:17:05.659Z,58.10
2019-01-23T12:19:53.723Z,57.17
2019-01-23T12:22:42.527Z,51.42
2019-01-23T12:25:31.617Z,58.25
2019-01-23T12:28:01.540Z,59.98
2019-01-23T12:30:50.765Z,55.00
2019-01-23T12:33:39.651Z,60.48
2019-01-23T12:36:28.464Z,55.30
2019-01-23T12:39:17.456Z,63.73
2019-01-23T12:42:06.485Z,55.48
2019-01-23T12:44:55.668Z,56.30
2019-01-23T12:47:37.397Z,55.55
2019-01-23T12:50:18.835Z,55.52
2019-01-23T12:53:00.076Z,54.73
2019-01-23T12:55:42.098Z,64.42
2019-01-23T12:58:23.677Z,58.30
2019-01-23T13:01:05.209Z,54.58
2019-01-23T13:03:46.239Z,52.98
2019-01-23T13:06:27.257Z,53.20
2019-01-23T13:09:08.325Z,60.67
2019-01-23T13:11:49.426Z,55.63
2019-01-23T13:14:30.774Z,53.30
2019-01-23T13:17:11.978Z,57.17
2019-01-23T13:19:53.752Z,63.45
2019-01-23T13:22:35.653Z,57.73
2019-01-23T13:25:17.288Z,55.35
2019-01-23T13:33:55.522Z,60.30
2019-01-23T13:36:36.560Z,52.70
2019-01-23T13:39:17.819Z,50.85
2019-01-23T13:41:59.222Z,55.08
2019-01-23T13:44:40.431Z,52.38
2019-01-23T13:47:22.289Z,52.73
2019-01-23T13:50:03.503Z,50.70
2019-01-23T13:52:33.630Z,58.20
2019-01-23T13:55:22.917Z,49.20
2019-01-23T13:58:11.837Z,55.83
2019-01-23T14:01:00.651Z,49.73
2019-01-23T14:03:49.151Z,54.23
2019-01-23T14:06:38.343Z,57.55
2019-01-23T14:09:09.415Z,51.55
2019-01-23T14:11:58.349Z,50.95
2019-01-23T14:14:28.556Z,67.10
2019-01-23T14:17:17.041Z,54.58
2019-01-23T14:20:07.072Z,57.98
2019-01-23T14:22:55.934Z,57.73
2019-01-23T14:25:44.945Z,56.53
2019-01-23T14:28:33.841Z,53.95
2019-01-23T14:31:22.959Z,57.67
2019-01-23T14:34:11.920Z,55.40
2019-01-23T14:37:00.777Z,62.08
2019-01-23T14:39:49.640Z,53.55
2019-01-23T14:42:38.429Z,62.65
2019-01-23T14:45:28.125Z,55.95
2019-01-23T14:48:17.258Z,53.75
2019-01-23T14:50:58.810Z,54.98
2019-01-23T14:53:40.388Z,59.25
2019-01-23T14:56:10.488Z,59.03
2019-01-23T14:58:59.711Z,62.88
2019-01-23T15:01:48.512Z,58.15
2019-01-23T15:04:37.287Z,59.88
2019-01-23T15:07:26.207Z,62.60
2019-01-23T15:10:16.104Z,62.88
2019-01-23T15:13:25.279Z,59.67
2019-01-23T15:16:14.453Z,59.70
2019-01-23T15:19:03.632Z,65.52
2019-01-23T15:21:52.519Z,64.55
2019-01-23T15:24:41.415Z,53.15
2019-01-23T15:27:29.745Z,56.45
2019-01-23T15:30:20.523Z,65.83
2019-01-23T15:33:10.029Z,64.05
2019-01-23T15:35:40.540Z,61.92
2019-01-23T15:38:29.211Z,68.55
2019-01-23T15:41:17.773Z,63.78
2019-01-23T15:44:06.794Z,63.60
2019-01-23T15:46:55.565Z,65.40
2019-01-23T15:49:37.358Z,72.90
2019-01-23T15:52:18.964Z,72.75
2019-01-23T15:55:00.990Z,64.35
2019-01-23T15:57:42.708Z,62.93
2019-01-23T16:00:24.038Z,66.55
2019-01-23T16:03:05.926Z,67.50
2019-01-23T16:05:48.222Z,63.08
2019-01-23T16:08:29.184Z,68.30
2019-01-23T16:11:11.492Z,62.83
2019-01-23T16:13:52.279Z,73.85
2019-01-23T16:16:34.285Z,70.70
2019-01-23T16:19:15.954Z,72.08
2019-01-23T16:21:57.724Z,70.57
2019-01-23T16:24:39.256Z,69.25
2019-01-23T16:27:20.640Z,61.00
2019-01-23T16:30:02.350Z,61.92
2019-01-23T16:32:43.059Z,68.52
2019-01-23T16:35:23.916Z,61.15
2019-01-23T16:38:05.595Z,61.33
2019-01-23T16:40:47.370Z,64.22
2019-01-23T16:43:28.781Z,62.45
2019-01-23T16:46:10.049Z,67.25
2019-01-23T16:48:51.524Z,68.75
2019-01-23T16:51:32.774Z,66.90
2019-01-23T16:54:14.740Z,64.32
2019-01-23T16:56:55.990Z,57.08
2019-01-23T16:59:37.854Z,75.62
2019-01-23T17:02:19.511Z,64.05
2019-01-23T17:05:01.365Z,72.08
2019-01-23T17:07:43.575Z,61.58
2019-01-23T17:10:24.462Z,65.92
2019-01-23T17:13:05.859Z,69.45
2019-01-23T17:15:46.850Z,60.10
2019-01-23T17:18:28.355Z,69.77
2019-01-23T17:21:09.318Z,83.95
2019-01-23T17:23:50.916Z,68.28
2019-01-23T17:26:32.164Z,70.83
2019-01-23T17:29:15.352Z,61.05
2019-01-23T17:31:56.639Z,68.17
2019-01-23T17:34:26.706Z,66.50
2019-01-23T17:37:15.661Z,71.95
2019-01-23T17:40:24.689Z,77.53
2019-01-23T17:46:09.035Z,67.12
2019-01-23T17:48:58.120Z,63.20
2019-01-23T17:51:47.509Z,76.05
2019-01-23T17:54:18.072Z,67.17
2019-01-23T17:57:08.580Z,64.10
2019-01-23T17:59:57.560Z,74.30
2019-01-23T18:02:28.464Z,72.60
2019-01-23T18:05:17.306Z,74.17
2019-01-23T18:08:07.010Z,68.90
2019-01-23T18:10:56.007Z,61.60
2019-01-23T18:13:44.801Z,72.12
2019-01-23T18:16:33.558Z,64.12
2019-01-23T18:19:23.322Z,70.65
2019-01-23T18:22:12.267Z,69.40
2019-01-23T18:25:01.564Z,71.60
2019-01-23T18:27:50.447Z,69.67
2019-01-23T18:30:58.373Z,66.25
2019-01-23T18:33:34.705Z,72.65
2019-01-23T18:36:42.478Z,69.07
2019-01-23T18:39:50.606Z,67.12
2019-01-23T18:42:58.561Z,72.00
2019-01-23T18:46:06.215Z,70.42
2019-01-23T18:49:14.310Z,81.30
2019-01-23T18:51:55.602Z,65.28
2019-01-23T18:54:37.592Z,72.80
2019-01-23T18:57:19.727Z,69.77
2019-01-23T19:00:01.463Z,71.50
2019-01-23T19:02:43.017Z,80.85
2019-01-23T19:05:24.352Z,67.87
2019-01-23T19:08:05.672Z,81.12
2019-01-23T19:10:47.664Z,74.60
2019-01-23T19:13:28.259Z,68.12
2019-01-23T19:16:10.830Z,70.28
2019-01-23T19:18:52.146Z,71.95
2019-01-23T19:21:34.008Z,72.67
2019-01-23T19:24:14.847Z,66.95
2019-01-23T19:26:56.396Z,69.45
2019-01-23T19:29:37.714Z,70.65
2019-01-23T19:32:20.128Z,72.32
2019-01-23T19:35:04.067Z,69.65
2019-01-23T19:37:45.503Z,71.90
2019-01-23T19:40:26.930Z,72.35
2019-01-23T19:43:08.676Z,80.83
2019-01-23T19:45:38.901Z,77.58
2019-01-23T19:48:28.145Z,79.90
2019-01-23T19:51:17.678Z,77.17
2019-01-23T19:53:58.787Z,84.87
2019-01-23T19:56:39.775Z,91.37
2019-01-23T19:59:20.747Z,77.42
2019-01-23T20:02:02.581Z,82.22
2019-01-23T20:04:33.060Z,75.20
2019-01-23T20:07:06.342Z,73.00
2019-01-23T20:12:50.795Z,81.02
2019-01-23T20:15:21.615Z,72.27
2019-01-23T20:18:11.246Z,74.70
2019-01-23T20:21:00.679Z,71.97
2019-01-23T20:23:49.487Z,74.12
2019-01-23T20:26:19.448Z,73.87
2019-01-23T20:29:08.653Z,73.65
2019-01-23T20:46:16.626Z,59.70
2019-01-23T20:49:05.233Z,62.30
2019-01-23T20:51:54.508Z,60.17
2019-01-23T20:54:44.181Z,58.80
2019-01-23T20:57:25.946Z,65.37
2019-01-23T21:00:07.552Z,60.58
2019-01-23T21:02:49.286Z,68.65
2019-01-23T21:05:31.398Z,59.88
2019-01-23T21:08:03.979Z,57.85
2019-01-23T21:10:54.451Z,60.48
2019-01-23T21:13:43.684Z,62.40
2019-01-23T21:16:32.660Z,64.30
2019-01-23T21:19:22.413Z,59.48
2019-01-23T21:21:54.519Z,60.58
2019-01-23T21:24:44.601Z,60.92
2019-01-23T21:27:36.597Z,74.87
2019-01-23T21:30:09.779Z,56.75
2019-01-23T21:32:59.053Z,59.77
2019-01-23T21:35:48.749Z,57.75
2019-01-23T21:38:19.610Z,55.38
2019-01-23T21:41:08.784Z,57.55
2019-01-23T21:43:57.985Z,56.58
2019-01-23T21:46:47.152Z,53.33
2019-01-23T21:49:18.775Z,56.85
2019-01-23T21:52:09.651Z,62.53
2019-01-23T21:55:00.188Z,64.35
2019-01-23T21:57:50.732Z,60.55
2019-01-23T22:00:59.859Z,64.85
2019-01-23T22:03:49.370Z,58.17
2019-01-23T22:06:40.194Z,60.50
2019-01-23T22:09:29.352Z,57.85
2019-01-23T22:12:19.038Z,56.63
2019-01-23T22:15:11.942Z,55.83
2019-01-23T22:18:01.363Z,52.50
2019-01-23T22:20:50.835Z,67.95
2019-01-23T22:23:21.526Z,72.40
2019-01-23T22:26:11.009Z,57.38
2019-01-23T22:28:59.899Z,56.77
2019-01-23T22:31:49.035Z,63.42
2019-01-23T22:34:38.311Z,73.78
2019-01-23T22:37:27.394Z,57.53
2019-01-23T22:39:57.590Z,64.60
2019-01-23T22:42:27.976Z,57.70
2019-01-23T22:45:18.053Z,64.87
2019-01-23T22:48:07.223Z,65.52
2019-01-23T22:50:56.203Z,54.23
2019-01-23T22:53:26.843Z,55.43
2019-01-23T22:55:57.140Z,59.10
2019-01-23T22:58:46.752Z,62.73
2019-01-23T23:01:35.887Z,62.23
2019-01-23T23:04:25.373Z,54.18
2019-01-23T23:06:56.451Z,61.18
2019-01-23T23:09:27.199Z,65.52
2019-01-23T23:12:16.041Z,60.98
2019-01-23T23:14:46.226Z,53.52
2019-01-23T23:17:35.226Z,59.90
2019-01-23T23:20:23.674Z,53.50
2019-01-23T23:23:12.636Z,56.90
2019-01-23T23:26:01.701Z,60.92
2019-01-23T23:28:50.531Z,61.95
2019-01-23T23:31:21.039Z,67.87
2019-01-23T23:34:10.444Z,61.28
2019-01-23T23:36:59.556Z,60.95
2019-01-23T23:39:48.716Z,64.20
2019-01-23T23:42:37.868Z,57.62
2019-01-23T23:45:27.072Z,51.20
2019-01-23T23:47:57.201Z,58.55
2019-01-23T23:50:46.269Z,65.20
2019-01-23T23:53:27.756Z,63.40
2019-01-23T23:55:58.641Z,66.28
2019-01-23T23:58:47.346Z,57.73
